createdAt,value
2022-10-06T00:01:34.503Z,100.00
2022-10-06T00:03:38.558Z,100.00
2022-10-06T00:05:41.351Z,100.00
2022-10-06T00:07:44.019Z,100.00
2022-10-06T00:09:46.868Z,100.00
2022-10-06T00:11:49.594Z,100.00
2022-10-06T00:13:52.281Z,100.00
2022-10-06T00:15:55.007Z,100.00
2022-10-06T00:17:58.430Z,100.00
2022-10-06T00:20:01.086Z,100.00
2022-10-06T00:22:03.801Z,100.00
2022-10-06T00:24:06.568Z,100.00
2022-10-06T00:26:17.428Z,100.00
2022-10-06T00:28:20.785Z,100.00
2022-10-06T00:30:26.526Z,100.00
2022-10-06T00:32:29.399Z,100.00
2022-10-06T00:34:32.051Z,100.00
2022-10-06T00:36:34.807Z,100.00
2022-10-06T00:38:37.667Z,100.00
2022-10-06T00:40:49.368Z,100.00
2022-10-06T00:43:02.466Z,100.00
2022-10-06T00:45:06.582Z,100.00
2022-10-06T00:47:09.223Z,100.00
2022-10-06T00:49:26.557Z,100.00
2022-10-06T00:51:30.896Z,100.00
2022-10-06T00:53:33.914Z,100.00
2022-10-06T00:55:36.769Z,100.00
2022-10-06T00:57:41.494Z,100.00
2022-10-06T00:59:44.148Z,100.00
2022-10-06T01:02:01.782Z,100.00
2022-10-06T01:04:09.909Z,100.00
2022-10-06T01:06:13.563Z,100.00
2022-10-06T01:08:17.009Z,100.00
2022-10-06T01:10:19.783Z,100.00
2022-10-06T01:12:23.353Z,100.00
2022-10-06T01:14:26.752Z,100.00
2022-10-06T01:16:32.395Z,100.00
2022-10-06T01:18:39.276Z,100.00
2022-10-06T01:20:49.231Z,100.00
2022-10-06T01:23:10.728Z,100.00
2022-10-06T01:25:16.597Z,100.00
2022-10-06T01:27:20.947Z,100.00
2022-10-06T01:29:24.985Z,100.00
2022-10-06T01:31:28.016Z,100.00
2022-10-06T01:33:30.873Z,100.00
2022-10-06T01:35:33.595Z,100.00
2022-10-06T01:37:36.307Z,100.00
2022-10-06T01:39:38.946Z,100.00
2022-10-06T01:41:41.584Z,100.00
2022-10-06T01:43:44.233Z,100.00
2022-10-06T01:45:52.971Z,100.00
2022-10-06T01:47:55.633Z,100.00
2022-10-06T01:49:58.279Z,100.00
2022-10-06T01:52:01.498Z,100.00
2022-10-06T01:54:04.363Z,100.00
2022-10-06T01:56:07.163Z,100.00
2022-10-06T01:58:11.336Z,100.00
2022-10-06T02:00:14.206Z,100.00
2022-10-06T02:02:17.628Z,100.00
2022-10-06T02:04:20.329Z,100.00
2022-10-06T02:06:23.080Z,100.00
2022-10-06T02:08:26.117Z,100.00
2022-10-06T02:10:29.152Z,100.00
2022-10-06T02:12:32.436Z,100.00
2022-10-06T02:14:35.179Z,100.00
2022-10-06T02:16:38.065Z,100.00
2022-10-06T02:18:41.069Z,100.00
2022-10-06T02:20:43.894Z,100.00
2022-10-06T02:22:46.536Z,100.00
2022-10-06T02:24:49.277Z,100.00
2022-10-06T02:26:52.852Z,100.00
2022-10-06T02:28:55.471Z,100.00
2022-10-06T02:31:08.967Z,100.00
2022-10-06T02:33:11.674Z,100.00
2022-10-06T02:35:14.578Z,100.00
2022-10-06T02:37:17.604Z,100.00
2022-10-06T02:39:20.268Z,100.00
2022-10-06T02:41:23.009Z,100.00
2022-10-06T02:43:29.763Z,100.00
2022-10-06T02:45:32.480Z,100.00
2022-10-06T02:47:37.083Z,100.00
2022-10-06T02:49:39.888Z,100.00
2022-10-06T02:51:42.550Z,100.00
2022-10-06T02:53:48.360Z,100.00
2022-10-06T02:55:51.178Z,100.00
2022-10-06T02:57:55.409Z,100.00
2022-10-06T02:59:58.239Z,100.00
2022-10-06T03:02:01.012Z,100.00
2022-10-06T03:04:03.745Z,100.00
2022-10-06T03:06:27.062Z,100.00
2022-10-06T03:08:29.996Z,100.00
2022-10-06T03:10:32.810Z,100.00
2022-10-06T03:12:35.465Z,100.00
2022-10-06T03:14:38.415Z,100.00
2022-10-06T03:16:43.106Z,100.00
2022-10-06T03:18:47.090Z,100.00
2022-10-06T03:20:49.858Z,100.00
2022-10-06T03:22:54.486Z,100.00
2022-10-06T03:24:57.198Z,100.00
2022-10-06T03:26:59.943Z,100.00
2022-10-06T03:29:03.916Z,100.00
2022-10-06T03:31:08.705Z,100.00
2022-10-06T03:33:11.347Z,100.00
2022-10-06T03:35:13.997Z,100.00
2022-10-06T03:37:19.282Z,100.00
2022-10-06T03:39:22.009Z,100.00
2022-10-06T03:41:27.749Z,100.00
2022-10-06T03:43:30.754Z,100.00
2022-10-06T03:45:33.405Z,100.00
2022-10-06T03:47:36.059Z,100.00
2022-10-06T03:49:39.279Z,100.00
2022-10-06T03:51:42.526Z,100.00
2022-10-06T03:53:46.625Z,100.00
2022-10-06T03:55:49.377Z,100.00
2022-10-06T03:57:51.997Z,100.00
2022-10-06T03:59:55.296Z,100.00
2022-10-06T04:01:58.033Z,100.00
2022-10-06T04:04:01.740Z,100.00
2022-10-06T04:06:06.562Z,100.00
2022-10-06T04:08:09.160Z,100.00
2022-10-06T04:10:11.747Z,100.00
2022-10-06T04:12:14.441Z,100.00
2022-10-06T04:14:17.351Z,100.00
2022-10-06T04:16:25.938Z,100.00
2022-10-06T04:18:28.991Z,100.00
2022-10-06T04:20:31.986Z,100.00
2022-10-06T04:22:34.754Z,100.00
2022-10-06T04:24:37.467Z,100.00
2022-10-06T04:26:46.941Z,100.00
2022-10-06T04:28:50.336Z,100.00
2022-10-06T04:30:57.994Z,100.00
2022-10-06T04:33:00.622Z,100.00
2022-10-06T04:35:03.297Z,100.00
2022-10-06T04:37:05.927Z,100.00
2022-10-06T04:39:10.802Z,100.00
2022-10-06T04:41:15.785Z,100.00
2022-10-06T04:43:18.477Z,100.00
2022-10-06T04:45:21.168Z,100.00
2022-10-06T04:47:23.822Z,100.00
2022-10-06T04:49:26.473Z,100.00
2022-10-06T04:51:29.809Z,100.00
2022-10-06T04:53:33.463Z,100.00
2022-10-06T04:55:36.146Z,100.00
2022-10-06T04:57:38.732Z,100.00
2022-10-06T05:00:05.930Z,100.00
2022-10-06T05:02:12.051Z,100.00
2022-10-06T05:04:16.081Z,100.00
2022-10-06T05:06:21.908Z,100.00
2022-10-06T05:08:24.584Z,100.00
2022-10-06T05:10:28.801Z,100.00
2022-10-06T05:12:31.535Z,100.00
2022-10-06T05:14:34.184Z,100.00
2022-10-06T05:16:39.729Z,100.00
2022-10-06T05:18:42.966Z,100.00
2022-10-06T05:20:56.270Z,100.00
2022-10-06T05:22:59.007Z,99.53
2022-10-06T05:25:01.806Z,98.49
2022-10-06T05:27:04.686Z,99.09
2022-10-06T05:29:07.443Z,99.48
2022-10-06T05:31:18.775Z,98.86
2022-10-06T05:33:21.507Z,99.47
2022-10-06T05:35:24.190Z,99.12
2022-10-06T05:37:27.062Z,98.89
2022-10-06T05:39:29.871Z,98.72
2022-10-06T05:41:34.268Z,98.69
2022-10-06T05:43:37.330Z,97.86
2022-10-06T05:45:39.998Z,98.37
2022-10-06T05:47:42.746Z,97.92
2022-10-06T05:49:45.453Z,98.24
2022-10-06T05:51:48.199Z,97.65
2022-10-06T05:53:51.191Z,98.19
2022-10-06T05:56:02.107Z,97.30
2022-10-06T05:58:04.869Z,98.18
2022-10-06T06:00:08.202Z,97.98
2022-10-06T06:02:11.006Z,97.72
2022-10-06T06:04:14.445Z,98.07
2022-10-06T06:06:26.036Z,97.79
2022-10-06T06:08:29.430Z,97.52
2022-10-06T06:10:32.584Z,98.07
2022-10-06T06:12:35.167Z,99.43
2022-10-06T06:14:56.283Z,100.00
2022-10-06T06:16:59.243Z,100.00
2022-10-06T06:19:02.140Z,100.00
2022-10-06T06:21:08.243Z,100.00
2022-10-06T06:23:10.899Z,100.00
2022-10-06T06:25:13.638Z,100.00
2022-10-06T06:27:16.514Z,100.00
2022-10-06T06:29:19.186Z,100.00
2022-10-06T06:31:26.833Z,100.00
2022-10-06T06:33:31.320Z,100.00
2022-10-06T06:35:35.091Z,100.00
2022-10-06T06:37:37.861Z,100.00
2022-10-06T06:39:40.481Z,100.00
2022-10-06T06:41:47.755Z,100.00
2022-10-06T06:43:51.933Z,100.00
2022-10-06T06:45:54.816Z,100.00
2022-10-06T06:47:57.682Z,100.00
2022-10-06T06:50:02.960Z,100.00
2022-10-06T06:52:06.437Z,100.00
2022-10-06T06:54:11.122Z,100.00
2022-10-06T06:56:13.794Z,100.00
2022-10-06T06:58:16.431Z,100.00
2022-10-06T07:00:19.106Z,99.78
2022-10-06T07:02:24.501Z,99.44
2022-10-06T07:04:27.559Z,98.41
2022-10-06T07:06:31.422Z,98.17
2022-10-06T07:08:34.027Z,98.24
2022-10-06T07:10:37.358Z,98.41
2022-10-06T07:12:40.121Z,98.40
2022-10-06T07:15:02.698Z,99.16
2022-10-06T07:17:25.466Z,100.00
2022-10-06T07:19:43.340Z,100.00
2022-10-06T07:22:17.871Z,100.00
2022-10-06T07:24:40.597Z,100.00
2022-10-06T07:26:44.168Z,100.00
2022-10-06T07:28:46.779Z,100.00
2022-10-06T07:30:50.725Z,100.00
2022-10-06T07:32:53.848Z,100.00
2022-10-06T07:34:58.344Z,100.00
2022-10-06T07:37:04.140Z,100.00
2022-10-06T07:39:10.619Z,100.00
2022-10-06T07:41:20.830Z,100.00
2022-10-06T07:43:23.927Z,100.00
2022-10-06T07:45:41.628Z,100.00
2022-10-06T07:47:44.546Z,100.00
2022-10-06T07:49:47.527Z,100.00
2022-10-06T07:51:50.213Z,100.00
2022-10-06T07:53:53.902Z,100.00
2022-10-06T07:56:07.597Z,100.00
2022-10-06T07:58:15.406Z,100.00
2022-10-06T08:00:22.542Z,100.00
2022-10-06T08:02:30.200Z,100.00
2022-10-06T08:04:35.781Z,100.00
2022-10-06T08:06:38.925Z,100.00
2022-10-06T08:08:42.993Z,100.00
2022-10-06T08:10:53.830Z,100.00
2022-10-06T08:12:56.542Z,100.00
2022-10-06T08:15:06.858Z,100.00
2022-10-06T08:17:10.366Z,100.00
2022-10-06T08:19:14.719Z,100.00
2022-10-06T08:21:26.615Z,100.00
2022-10-06T08:23:29.155Z,100.00
2022-10-06T08:25:31.645Z,100.00
2022-10-06T08:27:35.727Z,100.00
2022-10-06T08:29:38.463Z,100.00
2022-10-06T08:31:41.150Z,100.00
2022-10-06T08:33:45.048Z,100.00
2022-10-06T08:35:47.989Z,100.00
2022-10-06T08:37:50.726Z,100.00
2022-10-06T08:39:54.761Z,100.00
2022-10-06T08:41:58.196Z,100.00
2022-10-06T08:44:19.439Z,100.00
2022-10-06T08:46:25.302Z,100.00
2022-10-06T08:48:38.906Z,100.00
2022-10-06T08:51:29.004Z,100.00
2022-10-06T08:53:47.086Z,100.00
2022-10-06T08:55:54.840Z,100.00
2022-10-06T08:58:15.696Z,100.00
2022-10-06T09:00:21.391Z,100.00
2022-10-06T09:02:39.096Z,100.00
2022-10-06T09:04:42.459Z,100.00
2022-10-06T09:06:52.368Z,100.00
2022-10-06T09:09:26.027Z,100.00
2022-10-06T09:12:02.274Z,100.00
2022-10-06T09:14:12.856Z,100.00
2022-10-06T09:16:19.907Z,100.00
2022-10-06T09:18:56.138Z,100.00
2022-10-06T09:21:00.337Z,100.00
2022-10-06T09:23:09.728Z,100.00
2022-10-06T09:25:22.010Z,100.00
2022-10-06T09:27:33.799Z,100.00
2022-10-06T09:29:36.528Z,100.00
2022-10-06T09:31:44.898Z,100.00
2022-10-06T09:33:49.979Z,100.00
2022-10-06T09:36:12.594Z,100.00
2022-10-06T09:38:15.254Z,100.00
2022-10-06T09:40:36.650Z,100.00
2022-10-06T09:42:44.831Z,100.00
2022-10-06T09:44:56.139Z,100.00
2022-10-06T09:46:58.715Z,100.00
2022-10-06T09:49:24.740Z,100.00
2022-10-06T09:51:28.038Z,100.00
2022-10-06T09:53:34.264Z,100.00
2022-10-06T09:55:39.784Z,100.00
2022-10-06T09:57:53.577Z,100.00
2022-10-06T09:59:59.426Z,100.00
2022-10-06T10:02:04.780Z,100.00
2022-10-06T10:04:20.666Z,100.00
2022-10-06T10:06:30.356Z,100.00
2022-10-06T10:10:36.977Z,100.00
2022-10-06T10:12:53.103Z,100.00
2022-10-06T10:14:59.164Z,100.00
2022-10-06T10:17:11.027Z,100.00
2022-10-06T10:19:24.623Z,100.00
2022-10-06T10:21:35.601Z,100.00
2022-10-06T10:23:43.299Z,100.00
2022-10-06T10:25:55.317Z,100.00
2022-10-06T10:28:19.380Z,100.00
2022-10-06T10:30:24.001Z,100.00
2022-10-06T10:32:40.637Z,100.00
2022-10-06T10:34:52.149Z,100.00
2022-10-06T10:37:04.392Z,100.00
2022-10-06T10:39:14.343Z,100.00
2022-10-06T10:41:24.709Z,100.00
2022-10-06T10:43:42.400Z,100.00
2022-10-06T10:45:51.062Z,100.00
2022-10-06T10:47:55.680Z,100.00
2022-10-06T10:50:17.166Z,100.00
2022-10-06T10:52:23.593Z,100.00
2022-10-06T10:54:28.791Z,100.00
2022-10-06T10:56:59.075Z,100.00
2022-10-06T10:59:11.458Z,100.00
2022-10-06T11:01:50.381Z,100.00
2022-10-06T11:04:00.078Z,100.00
2022-10-06T11:06:25.758Z,100.00
2022-10-06T11:08:38.714Z,100.00
2022-10-06T11:10:51.286Z,100.00
2022-10-06T11:13:11.618Z,100.00
2022-10-06T11:15:46.311Z,100.00
2022-10-06T11:17:50.790Z,100.00
2022-10-06T11:19:59.294Z,100.00
2022-10-06T11:22:15.072Z,100.00
2022-10-06T11:24:59.196Z,100.00
2022-10-06T11:27:13.620Z,99.81
2022-10-06T11:29:27.713Z,99.43
2022-10-06T11:31:45.089Z,98.46
2022-10-06T11:33:53.049Z,98.23
2022-10-06T11:35:56.307Z,98.37
2022-10-06T11:38:15.978Z,98.50
2022-10-06T11:40:48.062Z,97.81
2022-10-06T11:43:11.930Z,97.59
2022-10-06T11:45:16.569Z,97.60
2022-10-06T11:47:35.616Z,96.84
2022-10-06T11:49:52.799Z,96.44
2022-10-06T11:51:59.594Z,96.27
2022-10-06T11:54:03.050Z,95.95
2022-10-06T11:56:17.604Z,95.44
2022-10-06T12:00:46.200Z,95.43
2022-10-06T12:02:49.015Z,95.31
2022-10-06T12:05:28.481Z,95.50
2022-10-06T12:07:57.083Z,95.80
2022-10-06T12:10:32.275Z,95.38
2022-10-06T12:12:42.214Z,95.84
2022-10-06T12:17:08.536Z,96.62
2022-10-06T12:18:00.339Z,96.67
2022-10-06T12:20:18.767Z,97.15
2022-10-06T12:22:39.035Z,97.22
2022-10-06T12:25:18.962Z,96.60
2022-10-06T12:27:29.840Z,97.11
2022-10-06T12:29:49.283Z,97.39
2022-10-06T12:32:07.590Z,97.46
2022-10-06T12:34:42.463Z,96.87
2022-10-06T12:36:45.246Z,95.06
2022-10-06T12:39:05.618Z,93.33
2022-10-06T12:41:12.855Z,92.59
2022-10-06T12:43:18.492Z,91.44
2022-10-06T12:45:22.880Z,90.93
2022-10-06T12:47:43.806Z,90.47
2022-10-06T12:50:02.260Z,90.81
2022-10-06T12:52:18.937Z,90.66
2022-10-06T12:54:50.468Z,90.69
2022-10-06T12:56:59.004Z,90.69
2022-10-06T12:59:35.433Z,90.65
2022-10-06T13:01:39.017Z,91.17
2022-10-06T13:03:48.451Z,90.89
2022-10-06T13:06:01.232Z,90.84
2022-10-06T13:08:07.070Z,90.45
2022-10-06T13:10:15.294Z,90.44
2022-10-06T13:12:20.817Z,90.99
2022-10-06T13:14:23.506Z,90.50
2022-10-06T13:16:31.452Z,90.23
2022-10-06T13:18:34.141Z,90.00
2022-10-06T13:20:46.346Z,90.06
2022-10-06T13:23:13.833Z,89.83
2022-10-06T13:25:16.785Z,90.06
2022-10-06T13:27:19.663Z,89.81
2022-10-06T13:29:25.251Z,90.14
2022-10-06T13:31:36.806Z,89.81
2022-10-06T13:33:41.385Z,90.08
2022-10-06T13:35:44.589Z,89.91
2022-10-06T13:37:47.626Z,90.41
2022-10-06T13:39:50.311Z,90.71
2022-10-06T13:42:08.886Z,91.00
2022-10-06T13:44:20.093Z,91.80
2022-10-06T13:46:25.915Z,92.28
2022-10-06T13:48:30.347Z,92.53
2022-10-06T13:50:34.119Z,92.92
2022-10-06T13:52:46.837Z,93.21
2022-10-06T13:54:57.653Z,93.92
2022-10-06T13:57:00.735Z,93.89
2022-10-06T13:59:23.349Z,93.79
2022-10-06T14:01:31.206Z,93.92
2022-10-06T14:05:45.760Z,94.00
2022-10-06T14:07:49.755Z,95.22
2022-10-06T14:09:52.429Z,94.74
2022-10-06T14:12:04.933Z,94.33
2022-10-06T14:14:16.244Z,94.63
2022-10-06T14:16:29.705Z,94.39
2022-10-06T14:18:40.344Z,94.61
2022-10-06T14:20:50.084Z,94.43
2022-10-06T14:22:52.820Z,94.50
2022-10-06T14:24:55.859Z,94.64
2022-10-06T14:27:03.977Z,95.23
2022-10-06T14:29:06.753Z,94.78
2022-10-06T14:31:14.297Z,95.64
2022-10-06T14:33:17.720Z,95.64
2022-10-06T14:35:20.512Z,95.96
2022-10-06T14:37:23.279Z,96.03
2022-10-06T14:39:25.944Z,96.03
2022-10-06T14:41:30.426Z,96.56
2022-10-06T14:43:33.222Z,96.60
2022-10-06T14:45:39.979Z,96.81
2022-10-06T14:47:42.572Z,96.95
2022-10-06T14:49:45.561Z,97.47
2022-10-06T14:51:48.177Z,97.61
2022-10-06T14:53:55.363Z,98.05
2022-10-06T14:56:06.502Z,98.17
2022-10-06T14:58:09.258Z,98.04
2022-10-06T15:00:12.430Z,98.24
2022-10-06T15:02:15.105Z,98.67
2022-10-06T15:04:19.915Z,99.15
2022-10-06T15:06:41.371Z,99.77
2022-10-06T15:08:44.099Z,99.27
2022-10-06T15:10:52.316Z,99.33
2022-10-06T15:12:55.780Z,99.24
2022-10-06T15:14:58.485Z,98.93
2022-10-06T15:17:01.392Z,98.63
2022-10-06T15:19:05.751Z,98.80
2022-10-06T15:21:09.987Z,98.52
2022-10-06T15:23:12.573Z,98.24
2022-10-06T15:25:35.527Z,98.32
2022-10-06T15:27:56.955Z,98.39
2022-10-06T15:30:00.376Z,97.82
2022-10-06T15:32:06.830Z,98.12
2022-10-06T15:34:12.946Z,98.02
2022-10-06T15:36:18.784Z,98.14
2022-10-06T15:38:21.585Z,97.66
2022-10-06T15:40:24.392Z,97.49
2022-10-06T15:42:27.176Z,97.17
2022-10-06T15:44:32.778Z,97.61
2022-10-06T15:46:44.221Z,97.58
2022-10-06T15:48:47.001Z,97.73
2022-10-06T15:50:49.577Z,97.44
2022-10-06T15:52:52.317Z,97.70
2022-10-06T15:54:54.943Z,97.83
2022-10-06T15:56:59.692Z,97.53
2022-10-06T15:59:02.874Z,97.72
2022-10-06T16:01:10.599Z,97.82
2022-10-06T16:03:26.767Z,97.52
2022-10-06T16:05:49.632Z,97.29
2022-10-06T16:07:52.364Z,97.50
2022-10-06T16:09:55.021Z,97.64
2022-10-06T16:11:59.380Z,97.53
2022-10-06T16:14:02.359Z,97.12
2022-10-06T16:16:05.325Z,97.14
2022-10-06T16:18:08.129Z,96.99
2022-10-06T16:20:11.790Z,97.17
2022-10-06T16:22:16.430Z,97.35
2022-10-06T16:24:20.792Z,97.35
2022-10-06T16:26:24.721Z,97.27
2022-10-06T16:28:27.468Z,97.93
2022-10-06T16:30:30.411Z,97.48
2022-10-06T16:32:33.061Z,98.00
2022-10-06T16:34:35.773Z,97.92
2022-10-06T16:36:39.076Z,98.13
2022-10-06T16:38:42.574Z,97.78
2022-10-06T16:40:45.191Z,98.30
2022-10-06T16:42:48.109Z,98.20
2022-10-06T16:44:50.745Z,98.25
2022-10-06T16:46:53.388Z,98.59
2022-10-06T16:48:58.100Z,98.34
2022-10-06T16:51:12.263Z,98.53
2022-10-06T16:53:16.981Z,98.60
2022-10-06T16:55:19.845Z,98.77
2022-10-06T16:57:22.630Z,98.60
2022-10-06T16:59:29.026Z,98.67
2022-10-06T17:01:34.886Z,98.78
2022-10-06T17:03:37.664Z,99.10
2022-10-06T17:05:40.369Z,98.99
2022-10-06T17:07:43.150Z,98.99
2022-10-06T17:09:56.108Z,99.54
2022-10-06T17:12:08.453Z,99.17
2022-10-06T17:14:11.763Z,99.25
2022-10-06T17:16:20.716Z,99.50
2022-10-06T17:18:23.663Z,99.68
2022-10-06T17:20:26.527Z,99.50
2022-10-06T17:22:29.138Z,99.73
2022-10-06T17:24:31.755Z,100.00
2022-10-06T17:26:36.618Z,100.00
2022-10-06T17:28:41.401Z,100.00
2022-10-06T17:30:52.867Z,100.00
2022-10-06T17:32:55.604Z,100.00
2022-10-06T17:34:58.240Z,100.00
2022-10-06T17:37:02.729Z,100.00
2022-10-06T17:39:09.322Z,100.00
2022-10-06T17:41:22.265Z,100.00
2022-10-06T17:43:25.137Z,100.00
2022-10-06T17:45:27.967Z,100.00
2022-10-06T17:47:30.818Z,100.00
2022-10-06T17:49:35.071Z,100.00
2022-10-06T17:51:41.052Z,100.00
2022-10-06T17:53:46.603Z,100.00
2022-10-06T17:55:50.025Z,100.00
2022-10-06T17:57:53.116Z,100.00
2022-10-06T17:59:59.276Z,100.00
2022-10-06T18:02:03.795Z,100.00
2022-10-06T18:04:07.315Z,100.00
2022-10-06T18:06:12.083Z,100.00
2022-10-06T18:08:15.104Z,100.00
2022-10-06T18:10:36.471Z,100.00
2022-10-06T18:12:39.388Z,100.00
2022-10-06T18:14:43.513Z,100.00
2022-10-06T18:16:56.837Z,100.00
2022-10-06T18:19:03.137Z,100.00
2022-10-06T18:21:06.061Z,100.00
2022-10-06T18:23:09.846Z,100.00
2022-10-06T18:25:16.901Z,100.00
2022-10-06T18:27:19.653Z,100.00
2022-10-06T18:29:24.756Z,100.00
2022-10-06T18:31:27.771Z,100.00
2022-10-06T18:35:50.739Z,100.00
2022-10-06T18:36:14.961Z,100.00
2022-10-06T18:38:18.151Z,100.00
2022-10-06T18:40:20.965Z,100.00
2022-10-06T18:42:24.378Z,100.00
2022-10-06T18:44:45.879Z,100.00
2022-10-06T18:47:07.186Z,100.00
2022-10-06T18:49:13.015Z,100.00
2022-10-06T18:51:15.712Z,100.00
2022-10-06T18:53:18.360Z,100.00
2022-10-06T18:55:21.111Z,100.00
2022-10-06T18:57:27.949Z,100.00
2022-10-06T18:59:31.551Z,100.00
2022-10-06T19:01:35.341Z,100.00
2022-10-06T19:03:38.059Z,100.00
2022-10-06T19:05:52.900Z,100.00
2022-10-06T19:07:56.067Z,100.00
2022-10-06T19:09:59.280Z,100.00
2022-10-06T19:12:02.087Z,100.00
2022-10-06T19:14:06.706Z,100.00
2022-10-06T19:16:09.521Z,100.00
2022-10-06T19:18:12.198Z,100.00
2022-10-06T19:20:15.555Z,100.00
2022-10-06T19:22:23.979Z,100.00
2022-10-06T19:24:34.969Z,100.00
2022-10-06T19:26:42.404Z,100.00
2022-10-06T19:28:47.822Z,100.00
2022-10-06T19:30:57.857Z,100.00
2022-10-06T19:33:01.339Z,100.00
2022-10-06T19:35:10.161Z,100.00
2022-10-06T19:37:14.812Z,100.00
2022-10-06T19:39:18.435Z,100.00
2022-10-06T19:41:40.094Z,100.00
2022-10-06T19:43:42.868Z,100.00
2022-10-06T19:45:56.983Z,100.00
2022-10-06T19:47:59.636Z,100.00
2022-10-06T19:50:08.739Z,100.00
2022-10-06T19:52:14.820Z,100.00
2022-10-06T19:54:19.310Z,100.00
2022-10-06T19:56:25.532Z,100.00
2022-10-06T19:58:28.422Z,100.00
2022-10-06T20:00:32.026Z,100.00
2022-10-06T20:02:37.450Z,100.00
2022-10-06T20:04:45.719Z,100.00
2022-10-06T20:06:48.984Z,100.00
2022-10-06T20:08:52.630Z,100.00
2022-10-06T20:11:05.501Z,100.00
2022-10-06T20:13:08.097Z,100.00
2022-10-06T20:15:13.013Z,100.00
2022-10-06T20:17:17.672Z,100.00
2022-10-06T20:19:21.920Z,100.00
2022-10-06T20:21:30.250Z,100.00
2022-10-06T20:23:33.169Z,100.00
2022-10-06T20:25:35.850Z,100.00
2022-10-06T20:27:38.652Z,100.00
2022-10-06T20:29:41.350Z,100.00
2022-10-06T20:31:47.067Z,100.00
2022-10-06T20:33:50.525Z,100.00
2022-10-06T20:35:53.261Z,100.00
2022-10-06T20:37:55.945Z,100.00
2022-10-06T20:40:17.101Z,100.00
2022-10-06T20:42:21.002Z,100.00
2022-10-06T20:44:23.818Z,100.00
2022-10-06T20:46:32.019Z,100.00
2022-10-06T20:48:35.234Z,100.00
2022-10-06T20:50:37.860Z,100.00
2022-10-06T20:52:40.495Z,100.00
2022-10-06T20:54:43.482Z,100.00
2022-10-06T20:56:50.404Z,100.00
2022-10-06T20:58:53.928Z,100.00
2022-10-06T21:01:04.138Z,100.00
2022-10-06T21:03:07.137Z,100.00
2022-10-06T21:05:10.361Z,100.00
2022-10-06T21:07:13.249Z,100.00
2022-10-06T21:09:19.170Z,100.00
2022-10-06T21:11:23.911Z,100.00
2022-10-06T21:13:28.500Z,100.00
2022-10-06T21:15:31.173Z,100.00
2022-10-06T21:17:33.922Z,100.00
2022-10-06T21:19:38.020Z,100.00
2022-10-06T21:21:42.633Z,100.00
2022-10-06T21:23:50.903Z,100.00
2022-10-06T21:25:54.091Z,100.00
2022-10-06T21:27:56.922Z,100.00
2022-10-06T21:29:59.606Z,100.00
2022-10-06T21:32:02.372Z,100.00
2022-10-06T21:34:05.335Z,100.00
2022-10-06T21:36:14.572Z,100.00
2022-10-06T21:38:17.388Z,100.00
2022-10-06T21:40:19.991Z,100.00
2022-10-06T21:42:22.798Z,100.00
2022-10-06T21:44:25.487Z,100.00
2022-10-06T21:46:42.670Z,100.00
2022-10-06T21:48:50.229Z,100.00
2022-10-06T21:50:55.983Z,100.00
2022-10-06T21:52:58.756Z,100.00
2022-10-06T21:55:01.441Z,100.00
2022-10-06T21:57:05.531Z,100.00
2022-10-06T21:59:09.526Z,100.00
2022-10-06T22:01:12.557Z,99.76
2022-10-06T22:03:15.442Z,99.83
2022-10-06T22:05:18.162Z,99.55
2022-10-06T22:07:20.935Z,99.23
2022-10-06T22:09:23.951Z,99.73
2022-10-06T22:11:30.040Z,99.20
2022-10-06T22:13:33.085Z,98.83
2022-10-06T22:15:36.678Z,99.32
2022-10-06T22:17:39.452Z,99.55
2022-10-06T22:19:42.193Z,99.25
2022-10-06T22:21:47.258Z,99.45
2022-10-06T22:24:04.095Z,99.27
2022-10-06T22:26:08.308Z,99.33
2022-10-06T22:28:11.230Z,99.30
2022-10-06T22:30:14.411Z,99.11
2022-10-06T22:32:17.467Z,98.90
2022-10-06T22:34:21.490Z,98.87
2022-10-06T22:36:25.403Z,98.95
2022-10-06T22:38:28.697Z,98.71
2022-10-06T22:40:31.819Z,98.54
2022-10-06T22:42:34.501Z,98.27
2022-10-06T22:44:37.153Z,99.00
2022-10-06T22:46:39.933Z,99.08
2022-10-06T22:48:42.838Z,99.17
2022-10-06T22:50:45.519Z,99.01
2022-10-06T22:52:48.301Z,99.48
2022-10-06T22:54:50.964Z,99.34
2022-10-06T22:56:53.653Z,99.08
2022-10-06T22:58:59.989Z,99.49
2022-10-06T23:01:13.838Z,99.50
2022-10-06T23:03:17.843Z,99.53
2022-10-06T23:05:21.194Z,99.40
2022-10-06T23:07:23.859Z,99.19
2022-10-06T23:09:26.531Z,99.21
2022-10-06T23:11:29.183Z,99.24
2022-10-06T23:13:31.911Z,99.26
2022-10-06T23:15:34.572Z,99.25
2022-10-06T23:17:41.456Z,98.97
2022-10-06T23:19:44.436Z,99.06
2022-10-06T23:21:47.067Z,99.39
2022-10-06T23:23:54.924Z,99.07
2022-10-06T23:26:02.468Z,99.22
2022-10-06T23:28:05.226Z,98.99
2022-10-06T23:30:08.647Z,99.30
2022-10-06T23:32:11.340Z,99.12
2022-10-06T23:34:14.011Z,99.22
2022-10-06T23:36:18.005Z,99.04
2022-10-06T23:38:20.622Z,98.68
2022-10-06T23:40:23.353Z,98.83
2022-10-06T23:42:26.064Z,98.72
2022-10-06T23:44:28.727Z,98.23
2022-10-06T23:46:31.340Z,98.04
2022-10-06T23:48:34.021Z,98.37
2022-10-06T23:50:36.727Z,98.53
2022-10-06T23:52:39.698Z,97.97
2022-10-06T23:54:42.319Z,98.44
2022-10-06T23:56:45.601Z,97.90
2022-10-06T23:58:48.524Z,97.95
